Morshansk, Russia
Current Conditions -  °F | °C
As of 9:00 PM on Wednesday 28 Jan 2015 (Local Time) from UUOO Reporting Station
Haze Haze  
Wind Chill: 25°   Ceiling: 600
Heat Index: 25°   Visibility: 2.5mi
Dew Point: 23°   Wind: 0mph
Humidity: 93%   Direction: NA
Pressure: 29.97"   Gusts: NA
Location:  53.45°N, 41.81°E
Report Text: UUOO 281800Z 00000MPS 4100 BR OVC006 M04/M05 Q1015 TEMPO 1100 OVC003 RMK 12850537
Loading
Personal Weather Stations






























Interactive Weather Map New forecast layout! Learn more

10-Day Weather Forecast

Advertisements
Track Severe Weather on mobile